Time;durP1;ratioP1;P1;durP2;ratioP2;P2;SDS_P1;SDS_P2;PMS_P1;PMS_P2;Temp;Humidity;BMP_temperature;BMP_pressure;BME280_temperature;BME280_humidity;BME280_pressure;Samples;Min_cycle;Max_cycle;Signal;HPM_P1;HPM_P2
2021/08/11 00:01:08;;;;;;;4.85;2.17;;;;;;;;;;4975630;28;20037;-73
2021/08/11 00:03:35;;;;;;;3.67;2.05;;;;;;;;;;4983782;28;20061;-74
2021/08/11 00:06:00;;;;;;;3.60;1.90;;;;;;;;;;4980550;28;20030;-73
2021/08/11 00:08:26;;;;;;;4.45;2.38;;;;;;;;;;4987200;28;20705;-74
2021/08/11 00:10:52;;;;;;;3.45;2.10;;;;;;;;;;4973718;28;20035;-74
2021/08/11 00:13:18;;;;;;;3.13;1.98;;;;;;;;;;4985973;28;20030;-74
2021/08/11 00:15:44;;;;;;;4.53;2.20;;;;;;;;;;4971979;28;20034;-73
2021/08/11 00:18:10;;;;;;;5.65;2.33;;;;;;;;;;4977087;28;20034;-74
2021/08/11 00:20:36;;;;;;;4.13;2.22;;;;;;;;;;4978403;28;20490;-74
2021/08/11 00:23:03;;;;;;;3.42;2.25;;;;;;;;;;4980878;28;20030;-74
2021/08/11 00:25:29;;;;;;;6.97;2.20;;;;;;;;;;4971898;28;20185;-74
2021/08/11 00:27:55;;;;;;;4.10;2.50;;;;;;;;;;4982561;28;20113;-74
2021/08/11 00:30:21;;;;;;;6.47;2.88;;;;;;;;;;4984713;28;20034;-74
2021/08/11 00:32:47;;;;;;;4.75;2.88;;;;;;;;;;4977685;28;20208;-74
2021/08/11 00:35:13;;;;;;;7.05;3.55;;;;;;;;;;4982144;28;20125;-74
2021/08/11 00:37:39;;;;;;;3.70;3.00;;;;;;;;;;4983044;28;20035;-74
2021/08/11 00:40:07;;;;;;;5.72;3.20;;;;;;;;;;4981074;28;20107;-73
2021/08/11 00:42:32;;;;;;;4.43;2.83;;;;;;;;;;4987961;28;20481;-74
2021/08/11 00:45:02;;;;;;;6.45;3.05;;;;;;;;;;4989149;28;20125;-74
2021/08/11 00:47:29;;;;;;;7.18;3.42;;;;;;;;;;4977470;28;20135;-73
2021/08/11 00:49:55;;;;;;;4.40;3.10;;;;;;;;;;4980379;28;20096;-74
2021/08/11 00:52:21;;;;;;;6.10;4.20;;;;;;;;;;4988920;28;20034;-73
2021/08/11 00:54:47;;;;;;;6.10;4.25;;;;;;;;;;4982098;28;20639;-74
2021/08/11 00:57:14;;;;;;;3.80;2.50;;;;;;;;;;4981734;28;20117;-73
2021/08/11 00:59:40;;;;;;;2.75;2.40;;;;;;;;;;4981823;28;20035;-74
2021/08/11 01:02:07;;;;;;;6.63;3.00;;;;;;;;;;4974463;28;20027;-73
2021/08/11 01:04:33;;;;;;;3.42;2.42;;;;;;;;;;4978892;28;20412;-74
2021/08/11 01:07:02;;;;;;;3.92;2.58;;;;;;;;;;4984646;28;20022;-74
2021/08/11 01:09:29;;;;;;;4.22;2.70;;;;;;;;;;4983311;28;20058;-73
2021/08/11 01:11:55;;;;;;;4.82;3.33;;;;;;;;;;4986481;28;20037;-74
2021/08/11 01:14:21;;;;;;;5.18;3.35;;;;;;;;;;4979424;28;20039;-74
2021/08/11 01:16:47;;;;;;;8.70;5.80;;;;;;;;;;4985435;28;20034;-74
2021/08/11 01:19:15;;;;;;;6.57;5.30;;;;;;;;;;4981509;28;20053;-73
2021/08/11 01:21:46;;;;;;;8.75;5.90;;;;;;;;;;4985414;28;20435;-73
2021/08/11 01:24:35;;;;;;;10.43;5.88;;;;;;;;;;4988633;28;20097;-73
2021/08/11 01:27:07;;;;;;;9.15;5.55;;;;;;;;;;4988660;28;20030;-73
2021/08/11 01:29:53;;;;;;;7.78;5.28;;;;;;;;;;4987129;28;20027;-74
2021/08/11 01:32:32;;;;;;;8.52;4.63;;;;;;;;;;4983280;28;20441;-73
2021/08/11 01:35:01;;;;;;;6.07;3.92;;;;;;;;;;4982913;28;20034;-74
2021/08/11 01:37:29;;;;;;;5.32;3.20;;;;;;;;;;4986906;28;20061;-74
2021/08/11 01:39:58;;;;;;;7.28;3.42;;;;;;;;;;4978249;28;20030;-73
2021/08/11 01:42:26;;;;;;;4.75;3.25;;;;;;;;;;4981667;28;20041;-73
2021/08/11 01:45:02;;;;;;;6.43;3.22;;;;;;;;;;4989796;28;20018;-73
2021/08/11 01:47:32;;;;;;;4.95;3.00;;;;;;;;;;4981658;28;20709;-74
2021/08/11 01:49:59;;;;;;;6.00;3.65;;;;;;;;;;4989514;28;20512;-74
2021/08/11 01:52:25;;;;;;;5.93;3.60;;;;;;;;;;4990341;28;20038;-74
2021/08/11 01:54:52;;;;;;;6.00;3.40;;;;;;;;;;4989140;28;20026;-74
2021/08/11 01:57:18;;;;;;;6.70;3.90;;;;;;;;;;4980640;28;20057;-74
2021/08/11 01:59:45;;;;;;;5.30;3.60;;;;;;;;;;4988398;28;20128;-73
2021/08/11 02:02:13;;;;;;;4.55;3.30;;;;;;;;;;4988558;28;20573;-74
2021/08/11 02:04:40;;;;;;;4.93;3.15;;;;;;;;;;4982682;28;20100;-74
2021/08/11 02:07:06;;;;;;;4.85;2.97;;;;;;;;;;4991024;28;20428;-74
2021/08/11 02:09:32;;;;;;;4.80;3.15;;;;;;;;;;4993520;28;20045;-74
2021/08/11 02:11:58;;;;;;;5.57;2.95;;;;;;;;;;4995541;28;20033;-74
2021/08/11 02:14:24;;;;;;;3.80;2.97;;;;;;;;;;4990386;28;20041;-74
2021/08/11 02:16:50;;;;;;;3.90;2.90;;;;;;;;;;4976273;28;20116;-74
2021/08/11 02:19:16;;;;;;;5.07;3.15;;;;;;;;;;4984832;28;20748;-74
2021/08/11 02:21:42;;;;;;;5.97;3.47;;;;;;;;;;4988533;28;20030;-74
2021/08/11 02:24:10;;;;;;;5.60;3.00;;;;;;;;;;4986153;28;20037;-74
2021/08/11 02:26:41;;;;;;;6.03;2.90;;;;;;;;;;4987864;28;20029;-74
2021/08/11 02:29:16;;;;;;;4.35;3.10;;;;;;;;;;4988001;28;20045;-73
2021/08/11 02:31:44;;;;;;;4.93;3.38;;;;;;;;;;4981777;28;20038;-74
2021/08/11 02:34:24;;;;;;;6.28;3.63;;;;;;;;;;4984470;28;20121;-74
2021/08/11 02:36:57;;;;;;;4.45;3.20;;;;;;;;;;4981154;28;20460;-74
2021/08/11 02:39:26;;;;;;;5.85;3.22;;;;;;;;;;4986602;28;20124;-74
2021/08/11 02:41:58;;;;;;;4.60;3.28;;;;;;;;;;4976481;28;20485;-74
2021/08/11 02:44:27;;;;;;;5.32;3.30;;;;;;;;;;4980305;28;20050;-74
2021/08/11 02:46:53;;;;;;;7.55;3.83;;;;;;;;;;4991730;28;20026;-74
2021/08/11 02:49:26;;;;;;;4.85;3.22;;;;;;;;;;4983150;28;20034;-74
2021/08/11 02:51:52;;;;;;;9.50;4.20;;;;;;;;;;4984675;28;20477;-73
2021/08/11 02:54:19;;;;;;;5.20;3.55;;;;;;;;;;4987244;28;20039;-74
2021/08/11 02:56:47;;;;;;;5.38;3.67;;;;;;;;;;4984034;28;20060;-73
2021/08/11 02:59:13;;;;;;;5.28;3.78;;;;;;;;;;4983935;28;20023;-73
2021/08/11 03:01:39;;;;;;;5.28;3.88;;;;;;;;;;4981998;28;20496;-73
2021/08/11 03:04:06;;;;;;;6.78;4.18;;;;;;;;;;4973506;28;20458;-73
2021/08/11 03:06:32;;;;;;;5.65;3.75;;;;;;;;;;4973401;28;20038;-73
2021/08/11 03:08:58;;;;;;;6.30;4.57;;;;;;;;;;4985561;28;20089;-73
2021/08/11 03:11:24;;;;;;;7.25;4.40;;;;;;;;;;4987475;28;20037;-73
2021/08/11 03:13:50;;;;;;;7.45;4.97;;;;;;;;;;4984976;28;20027;-73
2021/08/11 03:16:19;;;;;;;8.80;5.10;;;;;;;;;;4985692;28;20030;-74
2021/08/11 03:18:45;;;;;;;6.90;4.57;;;;;;;;;;4986203;28;20025;-73
2021/08/11 03:21:11;;;;;;;10.02;5.53;;;;;;;;;;4988399;28;20038;-73
2021/08/11 03:23:37;;;;;;;8.40;5.30;;;;;;;;;;4984275;28;20397;-74
2021/08/11 03:26:03;;;;;;;9.07;6.80;;;;;;;;;;4988433;28;20045;-74
2021/08/11 03:28:29;;;;;;;14.63;7.78;;;;;;;;;;4985924;28;20018;-74
2021/08/11 03:30:55;;;;;;;10.57;7.05;;;;;;;;;;4983516;28;20039;-74
2021/08/11 03:33:21;;;;;;;14.25;7.45;;;;;;;;;;4987377;28;20022;-74
2021/08/11 03:35:46;;;;;;;9.90;6.47;;;;;;;;;;4985963;28;20607;-74
2021/08/11 03:38:12;;;;;;;9.25;5.45;;;;;;;;;;4975098;28;20030;-74
2021/08/11 03:40:38;;;;;;;7.07;4.65;;;;;;;;;;4980443;28;20050;-74
2021/08/11 03:43:04;;;;;;;13.30;4.95;;;;;;;;;;4987921;28;20037;-74
2021/08/11 03:45:30;;;;;;;6.60;4.70;;;;;;;;;;4993437;28;20440;-74
2021/08/11 03:47:56;;;;;;;7.05;4.90;;;;;;;;;;4972762;28;20123;-74
2021/08/11 03:50:25;;;;;;;9.25;4.47;;;;;;;;;;4983298;28;20030;-74
2021/08/11 03:52:51;;;;;;;8.15;4.80;;;;;;;;;;4983478;28;20030;-74
2021/08/11 03:55:17;;;;;;;8.02;4.88;;;;;;;;;;4988127;28;20026;-74
2021/08/11 03:57:43;;;;;;;8.23;4.75;;;;;;;;;;4981609;28;20033;-74
2021/08/11 04:00:09;;;;;;;6.53;4.68;;;;;;;;;;4988934;28;20058;-74
2021/08/11 04:02:35;;;;;;;6.65;4.47;;;;;;;;;;4983669;28;20030;-73
2021/08/11 04:05:04;;;;;;;6.47;4.43;;;;;;;;;;4979977;28;20046;-73
2021/08/11 04:07:30;;;;;;;7.93;4.68;;;;;;;;;;4972607;28;20085;-73
2021/08/11 04:09:56;;;;;;;8.48;5.32;;;;;;;;;;4987318;28;20417;-74
2021/08/11 04:12:22;;;;;;;7.97;5.18;;;;;;;;;;4980500;28;20154;-73
2021/08/11 04:14:48;;;;;;;8.40;5.72;;;;;;;;;;4976569;28;20038;-73
2021/08/11 04:17:14;;;;;;;8.57;4.78;;;;;;;;;;4980551;28;20173;-73
2021/08/11 04:19:39;;;;;;;9.52;5.25;;;;;;;;;;4987990;28;20508;-73
2021/08/11 04:22:05;;;;;;;9.60;5.57;;;;;;;;;;4984153;28;20037;-73
2021/08/11 04:24:31;;;;;;;7.13;5.10;;;;;;;;;;4984814;28;20018;-73
2021/08/11 04:26:57;;;;;;;7.95;5.55;;;;;;;;;;4986014;28;20040;-73
2021/08/11 04:29:23;;;;;;;10.93;5.63;;;;;;;;;;4987452;28;20037;-73
2021/08/11 04:31:49;;;;;;;8.25;5.43;;;;;;;;;;4977931;28;20030;-73
2021/08/11 04:34:21;;;;;;;7.95;5.43;;;;;;;;;;4978949;28;20030;-73
2021/08/11 04:36:47;;;;;;;10.02;5.72;;;;;;;;;;4978634;28;20106;-73
2021/08/11 04:39:13;;;;;;;11.05;5.63;;;;;;;;;;4974341;28;20465;-73
2021/08/11 04:41:39;;;;;;;8.02;5.30;;;;;;;;;;4978788;28;20027;-74
2021/08/11 04:44:10;;;;;;;9.63;5.30;;;;;;;;;;4975224;28;20488;-74
2021/08/11 04:46:35;;;;;;;9.48;5.85;;;;;;;;;;4990871;28;20038;-73
2021/08/11 04:49:01;;;;;;;8.43;5.57;;;;;;;;;;4988556;28;20034;-74
2021/08/11 04:51:27;;;;;;;9.50;6.13;;;;;;;;;;4982435;28;20834;-73
2021/08/11 04:53:53;;;;;;;11.25;7.97;;;;;;;;;;4987448;28;20065;-74
2021/08/11 04:56:19;;;;;;;11.05;7.55;;;;;;;;;;4981041;28;20077;-74
2021/08/11 04:58:45;;;;;;;10.40;6.65;;;;;;;;;;4980362;28;20022;-74
2021/08/11 05:01:11;;;;;;;14.02;7.50;;;;;;;;;;4986522;28;20485;-74
2021/08/11 05:03:37;;;;;;;12.30;7.60;;;;;;;;;;4984148;28;20122;-74
2021/08/11 05:06:04;;;;;;;11.23;6.13;;;;;;;;;;4984226;28;20105;-76
2021/08/11 05:08:30;;;;;;;10.57;6.75;;;;;;;;;;4987497;28;20026;-72
2021/08/11 05:10:56;;;;;;;9.35;6.47;;;;;;;;;;4976501;28;20792;-71
2021/08/11 05:13:22;;;;;;;7.93;5.63;;;;;;;;;;4993509;28;20050;-71
2021/08/11 05:15:47;;;;;;;10.55;6.90;;;;;;;;;;4985326;28;20042;-72
2021/08/11 05:18:13;;;;;;;11.05;6.50;;;;;;;;;;4974991;28;20036;-72
2021/08/11 05:20:39;;;;;;;11.07;6.60;;;;;;;;;;4974009;28;20116;-75
2021/08/11 05:23:05;;;;;;;11.13;6.70;;;;;;;;;;4982767;28;20057;-73
2021/08/11 05:25:31;;;;;;;10.20;6.80;;;;;;;;;;4982589;28;20768;-72
2021/08/11 05:27:57;;;;;;;10.23;7.28;;;;;;;;;;4987355;28;20038;-73
2021/08/11 05:30:23;;;;;;;15.88;8.43;;;;;;;;;;4981603;28;20042;-72
2021/08/11 05:32:49;;;;;;;12.70;7.03;;;;;;;;;;4979664;28;20076;-74
2021/08/11 05:35:15;;;;;;;10.95;7.22;;;;;;;;;;4978262;28;20031;-74
2021/08/11 05:37:41;;;;;;;10.05;7.15;;;;;;;;;;4979541;28;20030;-74
2021/08/11 05:40:08;;;;;;;12.95;6.38;;;;;;;;;;4984100;28;20469;-73
2021/08/11 05:42:34;;;;;;;11.57;6.63;;;;;;;;;;4975687;28;20027;-73
2021/08/11 05:44:59;;;;;;;10.80;7.30;;;;;;;;;;4988209;28;20031;-73
2021/08/11 05:47:25;;;;;;;12.18;7.70;;;;;;;;;;4974200;28;20023;-73
2021/08/11 05:49:51;;;;;;;11.32;7.45;;;;;;;;;;4974221;28;20031;-72
2021/08/11 05:52:17;;;;;;;10.88;7.20;;;;;;;;;;4972205;28;20022;-72
2021/08/11 05:54:43;;;;;;;11.43;7.40;;;;;;;;;;4986411;28;20026;-73
2021/08/11 05:57:09;;;;;;;12.38;7.85;;;;;;;;;;4987758;28;20034;-72
2021/08/11 05:59:36;;;;;;;13.73;8.05;;;;;;;;;;4978564;28;20035;-72
2021/08/11 06:02:02;;;;;;;12.90;8.20;;;;;;;;;;4977661;28;20130;-71
2021/08/11 06:04:28;;;;;;;15.45;8.10;;;;;;;;;;4984809;28;20114;-72
2021/08/11 06:06:54;;;;;;;14.27;7.68;;;;;;;;;;4985017;28;20027;-73
2021/08/11 06:09:20;;;;;;;13.70;8.32;;;;;;;;;;4971818;28;20042;-72
2021/08/11 06:11:46;;;;;;;14.57;8.07;;;;;;;;;;4984013;28;20637;-72
2021/08/11 06:14:12;;;;;;;11.55;7.72;;;;;;;;;;4983199;28;20034;-72
2021/08/11 06:16:39;;;;;;;14.30;8.05;;;;;;;;;;4982671;28;20389;-73
2021/08/11 06:19:04;;;;;;;14.43;8.38;;;;;;;;;;4983989;28;20109;-72
2021/08/11 06:21:31;;;;;;;14.40;7.70;;;;;;;;;;4981249;28;20030;-72
2021/08/11 06:23:57;;;;;;;13.30;7.85;;;;;;;;;;4981976;28;20544;-73
2021/08/11 06:26:23;;;;;;;14.18;8.20;;;;;;;;;;4986700;28;20030;-72
2021/08/11 06:28:49;;;;;;;15.93;8.48;;;;;;;;;;4979178;28;20134;-73
2021/08/11 06:31:20;;;;;;;12.35;8.05;;;;;;;;;;4988418;28;20038;-72
2021/08/11 06:33:46;;;;;;;13.63;8.07;;;;;;;;;;4984380;28;20034;-72
2021/08/11 06:36:12;;;;;;;16.48;8.68;;;;;;;;;;4979735;28;20035;-73
2021/08/11 06:38:39;;;;;;;12.93;8.38;;;;;;;;;;4983301;28;20109;-73
2021/08/11 06:41:05;;;;;;;14.82;8.32;;;;;;;;;;4978851;28;20034;-72
2021/08/11 06:43:31;;;;;;;15.38;8.10;;;;;;;;;;4981019;28;20027;-73
2021/08/11 06:45:57;;;;;;;13.40;8.70;;;;;;;;;;4980489;28;20026;-73
2021/08/11 06:48:22;;;;;;;12.40;8.18;;;;;;;;;;4983116;28;20464;-73
2021/08/11 06:50:48;;;;;;;12.70;8.32;;;;;;;;;;4978576;28;20161;-73
2021/08/11 06:53:14;;;;;;;13.30;8.38;;;;;;;;;;4980201;28;20439;-73
2021/08/11 06:55:40;;;;;;;14.32;8.52;;;;;;;;;;4986089;28;20026;-73
2021/08/11 06:58:06;;;;;;;12.25;7.78;;;;;;;;;;4972451;28;20121;-73
2021/08/11 07:00:32;;;;;;;13.80;8.98;;;;;;;;;;4971886;28;20039;-73
2021/08/11 07:02:59;;;;;;;13.15;8.13;;;;;;;;;;4972799;28;20061;-73
2021/08/11 07:05:25;;;;;;;14.73;8.40;;;;;;;;;;4976093;28;20026;-73
2021/08/11 07:07:51;;;;;;;11.82;7.85;;;;;;;;;;4980500;28;20023;-73
2021/08/11 07:10:17;;;;;;;15.45;9.05;;;;;;;;;;4986976;28;20123;-72
2021/08/11 07:12:43;;;;;;;11.98;7.90;;;;;;;;;;4971502;28;20035;-72
2021/08/11 07:15:10;;;;;;;15.05;7.97;;;;;;;;;;4981613;28;20035;-73
2021/08/11 07:17:36;;;;;;;12.75;7.50;;;;;;;;;;4987206;28;20477;-72
2021/08/11 07:20:10;;;;;;;11.32;8.13;;;;;;;;;;4985216;28;20038;-72
2021/08/11 07:22:36;;;;;;;13.35;7.28;;;;;;;;;;4971416;28;20645;-73
2021/08/11 07:25:01;;;;;;;11.68;7.10;;;;;;;;;;4977852;28;20128;-73
2021/08/11 07:27:27;;;;;;;11.13;7.30;;;;;;;;;;4990793;28;20024;-72
2021/08/11 07:29:53;;;;;;;9.57;6.78;;;;;;;;;;4987526;28;20375;-72
2021/08/11 07:32:19;;;;;;;8.93;6.00;;;;;;;;;;4982370;28;20033;-72
2021/08/11 07:34:45;;;;;;;9.27;6.43;;;;;;;;;;4982288;28;20038;-74
2021/08/11 07:37:11;;;;;;;13.50;6.40;;;;;;;;;;4974589;28;20049;-73
2021/08/11 07:39:37;;;;;;;14.63;5.93;;;;;;;;;;4984250;28;20038;-73
2021/08/11 07:42:03;;;;;;;8.40;5.75;;;;;;;;;;4983660;28;20030;-74
2021/08/11 07:44:29;;;;;;;6.85;4.53;;;;;;;;;;4982616;28;20065;-73
2021/08/11 07:46:55;;;;;;;7.80;5.80;;;;;;;;;;4988702;28;20057;-73
2021/08/11 07:49:21;;;;;;;8.30;4.93;;;;;;;;;;4979250;28;20054;-72
2021/08/11 07:51:47;;;;;;;10.82;5.53;;;;;;;;;;4987281;28;20428;-74
2021/08/11 07:54:13;;;;;;;10.15;5.68;;;;;;;;;;4984242;28;20067;-74
2021/08/11 07:56:38;;;;;;;8.07;5.80;;;;;;;;;;4985791;28;20023;-72
2021/08/11 07:59:04;;;;;;;8.50;5.90;;;;;;;;;;4984189;28;20038;-72
2021/08/11 08:01:31;;;;;;;9.68;5.82;;;;;;;;;;4987789;28;20037;-72
2021/08/11 08:03:56;;;;;;;7.88;5.50;;;;;;;;;;4986979;28;20026;-73
2021/08/11 08:06:22;;;;;;;8.98;6.00;;;;;;;;;;4987386;28;20089;-72
2021/08/11 08:08:48;;;;;;;10.43;5.88;;;;;;;;;;4973796;28;20023;-74
2021/08/11 08:11:14;;;;;;;9.10;5.35;;;;;;;;;;4979772;28;20030;-73
2021/08/11 08:13:40;;;;;;;10.32;5.25;;;;;;;;;;4985878;28;20035;-73
2021/08/11 08:16:06;;;;;;;8.20;4.97;;;;;;;;;;4979135;28;20320;-73
2021/08/11 08:18:32;;;;;;;8.35;5.20;;;;;;;;;;4988813;28;20507;-74
2021/08/11 08:20:58;;;;;;;11.25;5.38;;;;;;;;;;4981190;28;20563;-73
2021/08/11 08:23:25;;;;;;;7.80;5.22;;;;;;;;;;4977685;28;20030;-73
2021/08/11 08:25:51;;;;;;;8.27;5.47;;;;;;;;;;4984540;28;20022;-73
2021/08/11 08:28:17;;;;;;;10.63;5.30;;;;;;;;;;4987490;28;20095;-73
2021/08/11 08:30:43;;;;;;;10.57;5.05;;;;;;;;;;4979269;28;20514;-73
2021/08/11 08:33:09;;;;;;;8.48;4.80;;;;;;;;;;4975756;28;20389;-76
2021/08/11 08:35:35;;;;;;;8.05;4.68;;;;;;;;;;4980779;28;20034;-74
2021/08/11 08:38:01;;;;;;;5.80;4.25;;;;;;;;;;4978999;28;20045;-76
2021/08/11 08:40:32;;;;;;;11.15;4.57;;;;;;;;;;4975687;28;20033;-79
2021/08/11 08:42:58;;;;;;;7.78;4.53;;;;;;;;;;4980400;28;20073;-75
2021/08/11 08:45:24;;;;;;;7.97;3.80;;;;;;;;;;4991358;28;20030;-74
2021/08/11 08:47:51;;;;;;;6.75;4.50;;;;;;;;;;4984162;28;20027;-74
2021/08/11 08:50:19;;;;;;;5.88;3.38;;;;;;;;;;4974177;28;20023;-74
2021/08/11 08:52:54;;;;;;;7.93;3.72;;;;;;;;;;4986553;28;20057;-75
2021/08/11 08:55:20;;;;;;;5.03;3.50;;;;;;;;;;4984972;28;20230;-73
2021/08/11 08:57:46;;;;;;;7.32;3.90;;;;;;;;;;4974033;28;20132;-74
2021/08/11 09:00:15;;;;;;;4.20;3.50;;;;;;;;;;4986317;28;20038;-72
2021/08/11 09:02:42;;;;;;;6.63;4.00;;;;;;;;;;4972581;28;20082;-74
2021/08/11 09:05:09;;;;;;;12.63;4.13;;;;;;;;;;4981670;28;20035;-74
2021/08/11 09:07:35;;;;;;;5.63;3.65;;;;;;;;;;4976938;28;20557;-74
2021/08/11 09:10:17;;;;;;;7.25;4.00;;;;;;;;;;4976641;28;20129;-75
2021/08/11 09:12:45;;;;;;;6.95;4.18;;;;;;;;;;4980242;28;20122;-74
2021/08/11 09:15:31;;;;;;;5.85;3.83;;;;;;;;;;4980536;28;20701;-72
2021/08/11 09:17:58;;;;;;;7.10;3.88;;;;;;;;;;4975622;28;20217;-72
2021/08/11 09:20:25;;;;;;;6.32;4.20;;;;;;;;;;4983695;28;20093;-74
2021/08/11 09:22:52;;;;;;;6.32;3.33;;;;;;;;;;4977016;28;20102;-72
2021/08/11 09:25:18;;;;;;;7.78;3.90;;;;;;;;;;4979174;28;20159;-72
2021/08/11 09:27:45;;;;;;;6.63;3.80;;;;;;;;;;4975930;28;20105;-72
2021/08/11 09:30:24;;;;;;;4.95;3.47;;;;;;;;;;4989818;28;20113;-71
2021/08/11 09:32:54;;;;;;;4.38;3.20;;;;;;;;;;4990371;28;20641;-71
2021/08/11 09:35:22;;;;;;;4.93;3.57;;;;;;;;;;4992002;28;20555;-71
2021/08/11 09:37:48;;;;;;;6.95;3.50;;;;;;;;;;4991181;28;20584;-72
2021/08/11 09:40:19;;;;;;;4.82;3.63;;;;;;;;;;4979389;28;20081;-71
2021/08/11 09:42:45;;;;;;;5.70;3.67;;;;;;;;;;4975776;28;20122;-71
2021/08/11 09:45:12;;;;;;;8.57;3.42;;;;;;;;;;4988761;28;20116;-71
2021/08/11 09:47:39;;;;;;;5.40;3.20;;;;;;;;;;4993311;28;20026;-71
2021/08/11 09:50:07;;;;;;;4.57;3.20;;;;;;;;;;4988010;28;20058;-72
2021/08/11 09:52:48;;;;;;;5.32;3.28;;;;;;;;;;4976987;28;20478;-71
2021/08/11 09:55:15;;;;;;;6.53;2.92;;;;;;;;;;4971865;28;20477;-71
2021/08/11 09:57:41;;;;;;;11.18;3.42;;;;;;;;;;4977883;28;20394;-71
2021/08/11 10:00:07;;;;;;;6.20;2.80;;;;;;;;;;4979479;28;20035;-71
2021/08/11 10:02:33;;;;;;;7.00;3.13;;;;;;;;;;4986152;28;20034;-72
2021/08/11 10:04:59;;;;;;;6.20;3.50;;;;;;;;;;4972024;28;20110;-71
2021/08/11 10:07:25;;;;;;;6.20;3.38;;;;;;;;;;4976184;28;20117;-72
2021/08/11 10:10:01;;;;;;;8.27;3.60;;;;;;;;;;4987881;28;20392;-73
2021/08/11 10:12:28;;;;;;;5.07;3.25;;;;;;;;;;4972930;28;20023;-71
2021/08/11 10:14:55;;;;;;;6.50;3.30;;;;;;;;;;4973892;28;20030;-72
2021/08/11 10:17:21;;;;;;;6.32;2.97;;;;;;;;;;4975060;28;20422;-71
2021/08/11 10:19:51;;;;;;;4.40;2.45;;;;;;;;;;4982969;28;20085;-72
2021/08/11 10:22:21;;;;;;;6.63;3.08;;;;;;;;;;4984892;28;20030;-72
2021/08/11 10:24:50;;;;;;;4.05;2.72;;;;;;;;;;4979905;28;20387;-71
2021/08/11 10:27:17;;;;;;;4.70;3.03;;;;;;;;;;4990061;28;20038;-72
2021/08/11 10:29:44;;;;;;;4.03;2.72;;;;;;;;;;4977801;28;20034;-72
2021/08/11 10:32:10;;;;;;;5.47;3.20;;;;;;;;;;4980593;28;20493;-70
2021/08/11 10:34:36;;;;;;;3.03;2.45;;;;;;;;;;4976381;28;20023;-71
2021/08/11 10:37:02;;;;;;;5.68;2.92;;;;;;;;;;4979947;28;20437;-72
2021/08/11 10:39:29;;;;;;;2.75;2.35;;;;;;;;;;4987982;28;20026;-72
2021/08/11 10:42:00;;;;;;;5.03;2.70;;;;;;;;;;4980231;28;20031;-73
2021/08/11 10:44:26;;;;;;;2.97;2.10;;;;;;;;;;4982150;28;20030;-73
2021/08/11 10:46:56;;;;;;;4.45;2.55;;;;;;;;;;4993899;28;20030;-72
2021/08/11 10:49:24;;;;;;;4.85;2.17;;;;;;;;;;4979500;28;20033;-71
2021/08/11 10:51:51;;;;;;;6.18;2.42;;;;;;;;;;4974728;28;20512;-72
2021/08/11 10:54:18;;;;;;;4.93;2.30;;;;;;;;;;4985115;28;20397;-72
2021/08/11 10:56:45;;;;;;;3.30;2.40;;;;;;;;;;4976191;28;20037;-71
2021/08/11 10:59:34;;;;;;;2.95;1.73;;;;;;;;;;4977272;28;20049;-72
2021/08/11 11:02:00;;;;;;;4.28;2.15;;;;;;;;;;4986562;28;20041;-71
2021/08/11 11:04:39;;;;;;;3.85;2.40;;;;;;;;;;4984495;28;20027;-72
2021/08/11 11:07:08;;;;;;;2.97;2.05;;;;;;;;;;4985896;28;20030;-72
2021/08/11 11:09:34;;;;;;;3.20;2.30;;;;;;;;;;4976755;28;20509;-73
2021/08/11 11:12:20;;;;;;;3.13;2.17;;;;;;;;;;4987348;28;20069;-72
2021/08/11 11:14:46;;;;;;;4.07;2.30;;;;;;;;;;4974609;28;20026;-73
2021/08/11 11:17:13;;;;;;;3.38;2.40;;;;;;;;;;4984725;28;20442;-72
2021/08/11 11:20:02;;;;;;;4.85;2.60;;;;;;;;;;4987519;28;20418;-72
2021/08/11 11:22:41;;;;;;;4.07;2.15;;;;;;;;;;4980187;28;20038;-72
2021/08/11 11:25:08;;;;;;;3.35;2.20;;;;;;;;;;4986066;28;20113;-71
2021/08/11 11:27:52;;;;;;;2.38;1.90;;;;;;;;;;4991272;28;20101;-72
2021/08/11 11:30:27;;;;;;;3.40;2.22;;;;;;;;;;4981379;28;20118;-72
2021/08/11 11:32:53;;;;;;;2.63;2.13;;;;;;;;;;4983331;28;20056;-72
2021/08/11 11:35:19;;;;;;;4.35;2.63;;;;;;;;;;4976625;28;20536;-72
2021/08/11 11:37:46;;;;;;;2.75;1.80;;;;;;;;;;4986905;28;20030;-72
2021/08/11 11:40:13;;;;;;;3.40;2.50;;;;;;;;;;4974382;28;20521;-72
2021/08/11 11:42:39;;;;;;;3.30;2.20;;;;;;;;;;4984452;28;20025;-73
2021/08/11 11:45:09;;;;;;;3.85;2.13;;;;;;;;;;4985809;28;20054;-74
2021/08/11 11:47:42;;;;;;;2.53;1.90;;;;;;;;;;4986134;28;20061;-74
2021/08/11 11:50:20;;;;;;;3.47;1.90;;;;;;;;;;4982494;28;20513;-78
2021/08/11 11:52:56;;;;;;;4.70;2.63;;;;;;;;;;4975286;28;20370;-74
2021/08/11 11:55:26;;;;;;;2.78;2.38;;;;;;;;;;4983508;28;20025;-72
2021/08/11 11:57:53;;;;;;;2.63;2.07;;;;;;;;;;4981628;28;20026;-74
2021/08/11 12:00:19;;;;;;;3.25;2.13;;;;;;;;;;4989052;28;20046;-73
2021/08/11 12:02:50;;;;;;;3.38;2.45;;;;;;;;;;4979145;28;20027;-73
2021/08/11 12:05:16;;;;;;;3.45;2.33;;;;;;;;;;4979334;28;20393;-73
2021/08/11 12:07:42;;;;;;;3.13;2.00;;;;;;;;;;4986522;28;20362;-73
2021/08/11 12:10:08;;;;;;;2.92;2.13;;;;;;;;;;4988798;28;20054;-73
2021/08/11 12:12:34;;;;;;;2.45;1.85;;;;;;;;;;4972929;28;20049;-73
2021/08/11 12:15:16;;;;;;;3.13;2.08;;;;;;;;;;4985593;28;20109;-74
2021/08/11 12:17:42;;;;;;;6.75;2.50;;;;;;;;;;4983165;28;20117;-80
2021/08/11 12:20:27;;;;;;;3.33;2.47;;;;;;;;;;4987313;28;20066;-72
2021/08/11 12:22:54;;;;;;;2.40;2.10;;;;;;;;;;4987512;28;20494;-71
2021/08/11 12:25:21;;;;;;;4.75;2.25;;;;;;;;;;4976793;28;20018;-73
2021/08/11 12:28:07;;;;;;;4.18;2.17;;;;;;;;;;4988573;28;20050;-73
2021/08/11 12:30:33;;;;;;;2.72;2.28;;;;;;;;;;4981375;28;20745;-73
2021/08/11 12:32:59;;;;;;;5.82;3.13;;;;;;;;;;4984040;28;20089;-72
2021/08/11 12:35:25;;;;;;;2.80;2.15;;;;;;;;;;4979964;28;20042;-73
2021/08/11 12:37:51;;;;;;;5.28;2.38;;;;;;;;;;4977328;28;20038;-74
2021/08/11 12:40:27;;;;;;;4.43;2.42;;;;;;;;;;4982179;28;20031;-73
2021/08/11 12:42:53;;;;;;;5.03;2.70;;;;;;;;;;4986899;28;20486;-73
2021/08/11 12:45:19;;;;;;;4.63;2.38;;;;;;;;;;4987641;28;20037;-73
2021/08/11 12:47:45;;;;;;;3.95;2.35;;;;;;;;;;4981885;28;20026;-72
2021/08/11 12:50:18;;;;;;;4.50;2.30;;;;;;;;;;4979976;28;20407;-71
2021/08/11 12:52:56;;;;;;;3.53;2.42;;;;;;;;;;4978289;28;20300;-72
2021/08/11 12:55:35;;;;;;;4.40;2.65;;;;;;;;;;4982814;28;20544;-72
2021/08/11 12:58:01;;;;;;;3.88;2.53;;;;;;;;;;4983398;28;20034;-71
2021/08/11 13:00:41;;;;;;;3.28;2.42;;;;;;;;;;4987010;28;20088;-72
2021/08/11 13:03:09;;;;;;;5.13;2.60;;;;;;;;;;4985661;28;20481;-71
2021/08/11 13:05:47;;;;;;;3.50;2.45;;;;;;;;;;4989929;28;20026;-72
2021/08/11 13:08:13;;;;;;;3.15;2.58;;;;;;;;;;4980447;28;20118;-72
2021/08/11 13:10:52;;;;;;;5.43;2.80;;;;;;;;;;4990336;28;20129;-71
2021/08/11 13:13:22;;;;;;;4.05;2.55;;;;;;;;;;4989492;28;20038;-72
2021/08/11 13:15:48;;;;;;;3.05;2.40;;;;;;;;;;4977056;28;20084;-73
2021/08/11 13:18:23;;;;;;;3.25;2.40;;;;;;;;;;4989239;28;20038;-72
2021/08/11 13:20:49;;;;;;;3.10;2.65;;;;;;;;;;4989931;28;20037;-74
2021/08/11 13:23:18;;;;;;;3.42;2.60;;;;;;;;;;4985866;28;20736;-73
2021/08/11 13:25:47;;;;;;;4.03;2.65;;;;;;;;;;4991032;28;20118;-71
2021/08/11 13:28:17;;;;;;;5.90;2.50;;;;;;;;;;4983209;28;20030;-73
2021/08/11 13:31:35;;;;;;;4.40;2.75;;;;;;;;;;4981722;28;20040;-72
2021/08/11 13:33:41;;;;;;;3.50;2.72;;;;;;;;;;4983189;28;20038;-75
2021/08/11 13:36:07;;;;;;;3.00;2.53;;;;;;;;;;4990159;28;20030;-74
2021/08/11 13:38:33;;;;;;;3.28;2.50;;;;;;;;;;4987242;28;20948;-72
2021/08/11 13:40:59;;;;;;;2.85;2.35;;;;;;;;;;4985954;28;20478;-73
2021/08/11 13:43:25;;;;;;;4.15;2.65;;;;;;;;;;4986273;28;20507;-75
2021/08/11 13:45:51;;;;;;;3.72;2.65;;;;;;;;;;4992748;28;20033;-73
2021/08/11 13:48:17;;;;;;;4.90;3.13;;;;;;;;;;4987714;28;20633;-78
2021/08/11 13:50:43;;;;;;;3.50;2.83;;;;;;;;;;4991689;28;20048;-75
2021/08/11 13:53:09;;;;;;;4.85;2.92;;;;;;;;;;4984328;28;20086;-75
2021/08/11 13:55:35;;;;;;;5.88;3.20;;;;;;;;;;4984760;28;20114;-73
2021/08/11 13:58:01;;;;;;;4.18;2.90;;;;;;;;;;4985528;28;20030;-75
2021/08/11 14:00:27;;;;;;;3.78;2.85;;;;;;;;;;4986116;28;20436;-72
2021/08/11 14:02:53;;;;;;;5.30;3.10;;;;;;;;;;4980915;28;20026;-76
2021/08/11 14:05:19;;;;;;;6.03;2.90;;;;;;;;;;4987215;28;20549;-75
2021/08/11 14:07:45;;;;;;;3.28;2.97;;;;;;;;;;4982617;28;20026;-73
2021/08/11 14:10:11;;;;;;;5.57;3.30;;;;;;;;;;4978976;28;20046;-74
2021/08/11 14:12:38;;;;;;;4.38;3.15;;;;;;;;;;4980306;28;20027;-74
2021/08/11 14:15:04;;;;;;;4.70;2.70;;;;;;;;;;4979927;28;20121;-74
2021/08/11 14:17:30;;;;;;;3.92;2.80;;;;;;;;;;4985519;28;20022;-77
2021/08/11 14:19:56;;;;;;;5.22;3.20;;;;;;;;;;4987233;28;20388;-74
2021/08/11 14:22:22;;;;;;;3.60;2.90;;;;;;;;;;4992194;28;20025;-74
2021/08/11 14:24:48;;;;;;;3.75;2.90;;;;;;;;;;4993103;28;20027;-74
2021/08/11 14:27:14;;;;;;;8.68;3.00;;;;;;;;;;4988972;28;20588;-75
2021/08/11 14:29:40;;;;;;;3.45;2.60;;;;;;;;;;4983712;28;20026;-74
2021/08/11 14:32:06;;;;;;;4.05;2.80;;;;;;;;;;4982146;28;20501;-76
2021/08/11 14:34:32;;;;;;;4.38;3.08;;;;;;;;;;4987876;28;20389;-76
2021/08/11 14:36:58;;;;;;;3.75;2.78;;;;;;;;;;4981656;28;20027;-76
2021/08/11 14:39:24;;;;;;;3.35;2.63;;;;;;;;;;4984302;28;20412;-76
2021/08/11 14:41:50;;;;;;;5.07;3.00;;;;;;;;;;4984256;28;20477;-77
2021/08/11 14:44:16;;;;;;;3.38;3.05;;;;;;;;;;4989624;28;20117;-76